sensor_id;sensor_type;location;lat;lon;timestamp;pressure;altitude;pressure_sealevel;temperature;humidity
19751;BME280;4663;49.120;9.730;2023-07-13T00:00:24;97945.34;;;20.20;72.36
19751;BME280;4663;49.120;9.730;2023-07-13T00:02:50;97941.72;;;20.08;72.78
19751;BME280;4663;49.120;9.730;2023-07-13T00:05:19;97943.91;;;20.17;74.57
19751;BME280;4663;49.120;9.730;2023-07-13T00:07:44;97936.44;;;20.32;74.61
19751;BME280;4663;49.120;9.730;2023-07-13T00:10:11;97923.50;;;20.08;75.71
19751;BME280;4663;49.120;9.730;2023-07-13T00:12:37;97924.91;;;19.92;76.09
19751;BME280;4663;49.120;9.730;2023-07-13T00:15:07;97925.75;;;19.92;76.57
19751;BME280;4663;49.120;9.730;2023-07-13T00:17:33;97923.13;;;19.79;76.76
19751;BME280;4663;49.120;9.730;2023-07-13T00:19:58;97921.38;;;19.66;75.30
19751;BME280;4663;49.120;9.730;2023-07-13T00:22:25;97917.84;;;20.10;75.18
19751;BME280;4663;49.120;9.730;2023-07-13T00:24:54;97916.66;;;19.99;75.06
19751;BME280;4663;49.120;9.730;2023-07-13T00:27:23;97917.09;;;19.77;75.48
19751;BME280;4663;49.120;9.730;2023-07-13T00:29:51;97913.63;;;19.88;74.48
19751;BME280;4663;49.120;9.730;2023-07-13T00:32:16;97919.31;;;19.87;75.10
19751;BME280;4663;49.120;9.730;2023-07-13T00:34:41;97912.66;;;19.57;74.10
19751;BME280;4663;49.120;9.730;2023-07-13T00:37:07;97917.88;;;19.84;76.46
19751;BME280;4663;49.120;9.730;2023-07-13T00:39:35;97930.41;;;19.27;76.84
19751;BME280;4663;49.120;9.730;2023-07-13T00:42:02;97939.00;;;19.57;77.21
19751;BME280;4663;49.120;9.730;2023-07-13T00:44:27;97935.03;;;19.20;77.47
19751;BME280;4663;49.120;9.730;2023-07-13T00:46:53;97934.63;;;19.56;76.65
19751;BME280;4663;49.120;9.730;2023-07-13T00:49:21;97935.88;;;19.53;76.43
19751;BME280;4663;49.120;9.730;2023-07-13T00:51:57;97939.00;;;19.57;76.12
19751;BME280;4663;49.120;9.730;2023-07-13T00:54:43;97944.84;;;19.53;77.31
19751;BME280;4663;49.120;9.730;2023-07-13T00:57:14;97941.00;;;19.04;76.03
19751;BME280;4663;49.120;9.730;2023-07-13T00:59:42;97946.78;;;19.14;76.23
19751;BME280;4663;49.120;9.730;2023-07-13T01:02:08;97946.38;;;19.10;77.19
19751;BME280;4663;49.120;9.730;2023-07-13T01:04:35;97951.41;;;19.13;76.58
19751;BME280;4663;49.120;9.730;2023-07-13T01:07:00;97944.16;;;19.33;76.09
19751;BME280;4663;49.120;9.730;2023-07-13T01:09:27;97940.94;;;19.10;74.88
19751;BME280;4663;49.120;9.730;2023-07-13T01:11:52;97951.09;;;18.89;75.57
19751;BME280;4663;49.120;9.730;2023-07-13T01:14:18;97961.09;;;19.35;75.41
19751;BME280;4663;49.120;9.730;2023-07-13T01:16:45;97951.09;;;19.28;74.02
19751;BME280;4663;49.120;9.730;2023-07-13T01:21:43;97958.81;;;19.32;74.95
19751;BME280;4663;49.120;9.730;2023-07-13T01:24:09;97964.94;;;19.52;75.87
19751;BME280;4663;49.120;9.730;2023-07-13T01:26:34;97964.22;;;19.38;75.16
19751;BME280;4663;49.120;9.730;2023-07-13T01:29:00;97973.22;;;19.39;75.41
19751;BME280;4663;49.120;9.730;2023-07-13T01:31:25;97962.88;;;19.15;77.62
19751;BME280;4663;49.120;9.730;2023-07-13T01:33:51;97963.69;;;18.77;74.31
19751;BME280;4663;49.120;9.730;2023-07-13T01:36:16;97953.84;;;18.69;73.92
19751;BME280;4663;49.120;9.730;2023-07-13T01:38:41;97958.25;;;18.77;74.40
19751;BME280;4663;49.120;9.730;2023-07-13T01:41:07;97950.72;;;18.72;73.15
19751;BME280;4663;49.120;9.730;2023-07-13T01:43:33;97968.63;;;18.94;75.64
19751;BME280;4663;49.120;9.730;2023-07-13T01:45:58;97959.94;;;18.71;74.90
19751;BME280;4663;49.120;9.730;2023-07-13T01:48:23;97972.03;;;18.82;75.18
19751;BME280;4663;49.120;9.730;2023-07-13T01:50:49;97963.72;;;18.57;74.43
19751;BME280;4663;49.120;9.730;2023-07-13T01:53:15;97971.47;;;18.60;73.34
19751;BME280;4663;49.120;9.730;2023-07-13T01:55:41;97980.81;;;18.78;73.02
19751;BME280;4663;49.120;9.730;2023-07-13T01:58:07;97978.66;;;18.93;73.94
19751;BME280;4663;49.120;9.730;2023-07-13T02:00:33;97985.53;;;19.02;75.31
19751;BME280;4663;49.120;9.730;2023-07-13T02:02:58;97980.84;;;18.64;77.49
19751;BME280;4663;49.120;9.730;2023-07-13T02:05:24;97981.72;;;18.51;78.46
19751;BME280;4663;49.120;9.730;2023-07-13T02:07:50;97966.09;;;18.33;73.78
19751;BME280;4663;49.120;9.730;2023-07-13T02:10:16;97970.84;;;18.51;76.08
19751;BME280;4663;49.120;9.730;2023-07-13T02:12:41;97970.03;;;18.44;75.97
19751;BME280;4663;49.120;9.730;2023-07-13T02:15:07;97970.00;;;18.50;74.77
19751;BME280;4663;49.120;9.730;2023-07-13T02:17:34;97973.66;;;18.10;76.64
19751;BME280;4663;49.120;9.730;2023-07-13T02:20:00;97969.22;;;18.43;77.33
19751;BME280;4663;49.120;9.730;2023-07-13T02:22:25;97961.72;;;18.32;75.37
19751;BME280;4663;49.120;9.730;2023-07-13T02:24:50;97968.81;;;18.26;75.89
19751;BME280;4663;49.120;9.730;2023-07-13T02:27:16;97970.41;;;18.61;75.68
19751;BME280;4663;49.120;9.730;2023-07-13T02:29:41;97971.34;;;18.14;77.58
19751;BME280;4663;49.120;9.730;2023-07-13T02:32:07;97969.56;;;18.60;77.30
19751;BME280;4663;49.120;9.730;2023-07-13T02:34:33;97976.34;;;18.31;76.69
19751;BME280;4663;49.120;9.730;2023-07-13T02:36:58;97988.00;;;18.31;76.08
19751;BME280;4663;49.120;9.730;2023-07-13T02:39:24;97985.09;;;18.12;76.40
19751;BME280;4663;49.120;9.730;2023-07-13T02:41:49;97982.38;;;18.33;76.86
19751;BME280;4663;49.120;9.730;2023-07-13T02:44:15;97985.13;;;18.19;76.57
19751;BME280;4663;49.120;9.730;2023-07-13T02:46:40;97988.44;;;18.21;75.98
19751;BME280;4663;49.120;9.730;2023-07-13T02:49:06;97991.31;;;17.52;76.63
19751;BME280;4663;49.120;9.730;2023-07-13T02:51:31;97999.28;;;17.74;77.87
19751;BME280;4663;49.120;9.730;2023-07-13T02:54:03;97986.81;;;17.93;77.53
19751;BME280;4663;49.120;9.730;2023-07-13T02:56:29;97980.13;;;17.96;77.78
19751;BME280;4663;49.120;9.730;2023-07-13T02:58:56;97984.28;;;17.85;76.08
19751;BME280;4663;49.120;9.730;2023-07-13T03:01:22;97995.94;;;17.72;78.42
19751;BME280;4663;49.120;9.730;2023-07-13T03:03:49;98000.75;;;17.83;77.89
19751;BME280;4663;49.120;9.730;2023-07-13T03:06:15;97999.25;;;17.40;78.71
19751;BME280;4663;49.120;9.730;2023-07-13T03:08:42;98002.41;;;17.64;78.78
19751;BME280;4663;49.120;9.730;2023-07-13T03:11:13;98004.53;;;17.89;78.28
19751;BME280;4663;49.120;9.730;2023-07-13T03:13:39;97997.19;;;17.69;76.47
19751;BME280;4663;49.120;9.730;2023-07-13T03:16:06;98009.31;;;17.87;75.51
19751;BME280;4663;49.120;9.730;2023-07-13T03:18:32;98013.19;;;17.37;76.82
19751;BME280;4663;49.120;9.730;2023-07-13T03:20:57;98020.56;;;17.64;76.60
19751;BME280;4663;49.120;9.730;2023-07-13T03:23:23;98020.59;;;17.77;77.37
19751;BME280;4663;49.120;9.730;2023-07-13T03:25:49;98016.78;;;17.44;76.27
19751;BME280;4663;49.120;9.730;2023-07-13T03:28:15;98023.91;;;17.79;76.29
19751;BME280;4663;49.120;9.730;2023-07-13T03:30:41;98017.03;;;17.70;75.86
19751;BME280;4663;49.120;9.730;2023-07-13T03:33:07;98029.34;;;17.79;76.13
19751;BME280;4663;49.120;9.730;2023-07-13T03:35:34;98037.63;;;17.44;76.58
19751;BME280;4663;49.120;9.730;2023-07-13T03:38:00;98029.06;;;17.40;76.33
19751;BME280;4663;49.120;9.730;2023-07-13T03:40:26;98025.69;;;17.25;75.73
19751;BME280;4663;49.120;9.730;2023-07-13T03:42:52;98037.38;;;17.32;76.94
19751;BME280;4663;49.120;9.730;2023-07-13T03:45:18;98043.91;;;17.51;76.94
19751;BME280;4663;49.120;9.730;2023-07-13T03:47:43;98049.28;;;17.38;77.59
19751;BME280;4663;49.120;9.730;2023-07-13T03:50:09;98053.66;;;17.32;76.80
19751;BME280;4663;49.120;9.730;2023-07-13T03:52:34;98052.41;;;17.34;77.90
19751;BME280;4663;49.120;9.730;2023-07-13T03:55:00;98048.91;;;17.61;77.69
19751;BME280;4663;49.120;9.730;2023-07-13T03:57:25;98057.06;;;17.74;76.82
19751;BME280;4663;49.120;9.730;2023-07-13T03:59:51;98055.69;;;17.92;77.32
19751;BME280;4663;49.120;9.730;2023-07-13T04:02:16;98058.63;;;18.18;77.13
19751;BME280;4663;49.120;9.730;2023-07-13T04:04:43;98066.53;;;18.06;77.35
19751;BME280;4663;49.120;9.730;2023-07-13T04:07:08;98060.25;;;18.59;74.68
19751;BME280;4663;49.120;9.730;2023-07-13T04:09:34;98061.00;;;19.00;76.15
19751;BME280;4663;49.120;9.730;2023-07-13T04:12:00;98066.03;;;18.90;73.72
19751;BME280;4663;49.120;9.730;2023-07-13T04:14:25;98067.75;;;18.91;73.59
19751;BME280;4663;49.120;9.730;2023-07-13T04:16:51;98071.94;;;18.87;72.45
19751;BME280;4663;49.120;9.730;2023-07-13T04:19:16;98071.28;;;18.85;71.14
19751;BME280;4663;49.120;9.730;2023-07-13T04:21:42;98073.19;;;18.50;72.66
19751;BME280;4663;49.120;9.730;2023-07-13T04:24:07;98082.44;;;18.29;75.09
19751;BME280;4663;49.120;9.730;2023-07-13T04:26:33;98084.06;;;18.50;75.69
19751;BME280;4663;49.120;9.730;2023-07-13T04:29:01;98089.09;;;17.99;76.80
19751;BME280;4663;49.120;9.730;2023-07-13T04:31:29;98085.97;;;18.16;77.80
19751;BME280;4663;49.120;9.730;2023-07-13T04:33:54;98092.41;;;17.95;76.71
19751;BME280;4663;49.120;9.730;2023-07-13T04:36:20;98097.34;;;17.78;77.95
19751;BME280;4663;49.120;9.730;2023-07-13T04:38:45;98090.16;;;18.12;77.92
19751;BME280;4663;49.120;9.730;2023-07-13T04:41:10;98082.41;;;18.49;76.93
19751;BME280;4663;49.120;9.730;2023-07-13T04:43:36;98085.97;;;18.30;76.86
19751;BME280;4663;49.120;9.730;2023-07-13T04:46:07;98087.44;;;18.39;74.95
19751;BME280;4663;49.120;9.730;2023-07-13T04:48:32;98096.63;;;18.52;76.80
19751;BME280;4663;49.120;9.730;2023-07-13T04:50:58;98091.59;;;18.08;76.80
19751;BME280;4663;49.120;9.730;2023-07-13T04:53:24;98089.41;;;17.69;78.13
19751;BME280;4663;49.120;9.730;2023-07-13T04:55:50;98087.22;;;18.20;77.44
19751;BME280;4663;49.120;9.730;2023-07-13T04:58:16;98095.56;;;18.19;79.36
19751;BME280;4663;49.120;9.730;2023-07-13T05:00:41;98084.06;;;17.90;77.67
19751;BME280;4663;49.120;9.730;2023-07-13T05:03:07;98085.75;;;18.18;78.92
19751;BME280;4663;49.120;9.730;2023-07-13T05:05:32;98084.03;;;18.71;77.01
19751;BME280;4663;49.120;9.730;2023-07-13T05:07:57;98090.91;;;19.00;76.36
19751;BME280;4663;49.120;9.730;2023-07-13T05:10:23;98090.97;;;19.39;75.40
19751;BME280;4663;49.120;9.730;2023-07-13T05:12:49;98090.31;;;19.90;72.13
19751;BME280;4663;49.120;9.730;2023-07-13T05:15:15;98085.59;;;20.29;70.62
19751;BME280;4663;49.120;9.730;2023-07-13T05:17:40;98080.13;;;20.11;69.94
19751;BME280;4663;49.120;9.730;2023-07-13T05:20:07;98093.41;;;19.55;71.99
19751;BME280;4663;49.120;9.730;2023-07-13T05:22:33;98090.06;;;19.52;72.07
19751;BME280;4663;49.120;9.730;2023-07-13T05:25:01;98106.59;;;19.58;72.33
19751;BME280;4663;49.120;9.730;2023-07-13T05:27:26;98099.72;;;19.48;73.02
19751;BME280;4663;49.120;9.730;2023-07-13T05:29:52;98102.22;;;19.57;74.21
19751;BME280;4663;49.120;9.730;2023-07-13T05:32:18;98104.25;;;19.68;74.71
19751;BME280;4663;49.120;9.730;2023-07-13T05:34:43;98100.75;;;19.93;72.21
19751;BME280;4663;49.120;9.730;2023-07-13T05:37:08;98102.69;;;20.18;70.74
19751;BME280;4663;49.120;9.730;2023-07-13T05:39:34;98104.28;;;20.77;70.48
19751;BME280;4663;49.120;9.730;2023-07-13T05:42:00;98097.72;;;21.41;68.41
19751;BME280;4663;49.120;9.730;2023-07-13T05:44:25;98078.59;;;21.90;63.39
19751;BME280;4663;49.120;9.730;2023-07-13T05:46:50;98091.84;;;22.05;64.24
19751;BME280;4663;49.120;9.730;2023-07-13T05:49:16;98091.34;;;21.96;63.64
19751;BME280;4663;49.120;9.730;2023-07-13T05:51:41;98102.72;;;21.93;64.02
19751;BME280;4663;49.120;9.730;2023-07-13T05:54:07;98103.25;;;21.83;65.09
19751;BME280;4663;49.120;9.730;2023-07-13T05:56:32;98104.97;;;21.96;63.63
19751;BME280;4663;49.120;9.730;2023-07-13T05:58:57;98108.56;;;21.78;63.94
19751;BME280;4663;49.120;9.730;2023-07-13T06:01:23;98108.09;;;21.51;63.44
19751;BME280;4663;49.120;9.730;2023-07-13T06:03:48;98122.47;;;21.02;66.42
19751;BME280;4663;49.120;9.730;2023-07-13T06:06:15;98116.81;;;21.03;65.05
19751;BME280;4663;49.120;9.730;2023-07-13T06:08:40;98104.25;;;21.02;63.20
19751;BME280;4663;49.120;9.730;2023-07-13T06:11:10;98116.09;;;21.33;65.65
19751;BME280;4663;49.120;9.730;2023-07-13T06:13:37;98113.59;;;21.13;64.40
19751;BME280;4663;49.120;9.730;2023-07-13T06:16:03;98120.59;;;21.40;64.40
19751;BME280;4663;49.120;9.730;2023-07-13T06:18:33;98108.78;;;21.65;64.12
19751;BME280;4663;49.120;9.730;2023-07-13T06:20:58;98119.72;;;21.27;64.00
19751;BME280;4663;49.120;9.730;2023-07-13T06:23:24;98120.16;;;21.43;64.02
19751;BME280;4663;49.120;9.730;2023-07-13T06:25:50;98130.75;;;21.32;65.15
19751;BME280;4663;49.120;9.730;2023-07-13T06:28:15;98124.19;;;21.40;63.85
19751;BME280;4663;49.120;9.730;2023-07-13T06:30:41;98124.31;;;21.27;62.79
19751;BME280;4663;49.120;9.730;2023-07-13T06:33:06;98133.22;;;21.22;64.53
19751;BME280;4663;49.120;9.730;2023-07-13T06:35:32;98124.00;;;21.54;64.90
19751;BME280;4663;49.120;9.730;2023-07-13T06:37:57;98121.53;;;22.14;62.72
19751;BME280;4663;49.120;9.730;2023-07-13T06:40:22;98115.00;;;21.84;62.50
19751;BME280;4663;49.120;9.730;2023-07-13T06:42:48;98120.22;;;22.16;61.84
19751;BME280;4663;49.120;9.730;2023-07-13T06:45:13;98115.69;;;22.65;61.06
19751;BME280;4663;49.120;9.730;2023-07-13T06:47:39;98108.09;;;22.67;59.00
19751;BME280;4663;49.120;9.730;2023-07-13T06:50:05;98118.59;;;23.23;59.31
19751;BME280;4663;49.120;9.730;2023-07-13T06:52:30;98115.19;;;23.04;57.97
19751;BME280;4663;49.120;9.730;2023-07-13T06:54:56;98139.00;;;22.67;59.48
19751;BME280;4663;49.120;9.730;2023-07-13T06:57:21;98119.44;;;23.23;58.34
19751;BME280;4663;49.120;9.730;2023-07-13T06:59:46;98125.09;;;23.58;57.22
19751;BME280;4663;49.120;9.730;2023-07-13T07:02:12;98149.84;;;24.38;60.09
19751;BME280;4663;49.120;9.730;2023-07-13T07:04:37;98117.00;;;23.51;55.51
19751;BME280;4663;49.120;9.730;2023-07-13T07:07:03;98136.09;;;23.22;56.60
19751;BME280;4663;49.120;9.730;2023-07-13T07:09:28;98158.88;;;24.22;59.10
19751;BME280;4663;49.120;9.730;2023-07-13T07:11:55;98131.03;;;24.59;55.73
19751;BME280;4663;49.120;9.730;2023-07-13T07:14:20;98144.91;;;25.49;55.93
19751;BME280;4663;49.120;9.730;2023-07-13T07:16:46;98136.38;;;25.05;53.43
19751;BME280;4663;49.120;9.730;2023-07-13T07:19:11;98146.16;;;25.86;54.21
19751;BME280;4663;49.120;9.730;2023-07-13T07:21:37;98138.66;;;25.53;53.11
19751;BME280;4663;49.120;9.730;2023-07-13T07:24:03;98139.81;;;25.35;53.35
19751;BME280;4663;49.120;9.730;2023-07-13T07:26:30;98141.22;;;25.38;53.55
19751;BME280;4663;49.120;9.730;2023-07-13T07:28:55;98130.19;;;24.76;53.71
19751;BME280;4663;49.120;9.730;2023-07-13T07:31:21;98142.13;;;25.04;53.88
19751;BME280;4663;49.120;9.730;2023-07-13T07:33:46;98161.91;;;26.18;56.25
19751;BME280;4663;49.120;9.730;2023-07-13T07:36:11;98132.13;;;26.04;52.31
19751;BME280;4663;49.120;9.730;2023-07-13T07:38:37;98167.63;;;26.71;55.32
19751;BME280;4663;49.120;9.730;2023-07-13T07:41:04;98133.94;;;26.92;50.68
19751;BME280;4663;49.120;9.730;2023-07-13T07:43:29;98153.88;;;26.11;52.52
19751;BME280;4663;49.120;9.730;2023-07-13T07:45:55;98179.72;;;26.70;54.12
19751;BME280;4663;49.120;9.730;2023-07-13T07:48:20;98148.13;;;26.45;51.97
19751;BME280;4663;49.120;9.730;2023-07-13T07:50:46;98146.91;;;26.31;51.69
19751;BME280;4663;49.120;9.730;2023-07-13T07:53:11;98144.09;;;26.91;50.68
19751;BME280;4663;49.120;9.730;2023-07-13T07:55:37;98134.25;;;27.01;50.03
19751;BME280;4663;49.120;9.730;2023-07-13T07:58:05;98142.16;;;27.35;50.29
19751;BME280;4663;49.120;9.730;2023-07-13T08:00:30;98123.00;;;26.64;49.72
19751;BME280;4663;49.120;9.730;2023-07-13T08:02:57;98141.16;;;26.65;50.84
19751;BME280;4663;49.120;9.730;2023-07-13T08:05:23;98128.09;;;26.83;48.92
19751;BME280;4663;49.120;9.730;2023-07-13T08:07:48;98129.44;;;27.23;48.06
19751;BME280;4663;49.120;9.730;2023-07-13T08:10:13;98141.88;;;28.27;48.89
19751;BME280;4663;49.120;9.730;2023-07-13T08:12:40;98138.00;;;28.07;47.68
19751;BME280;4663;49.120;9.730;2023-07-13T08:15:08;98133.78;;;27.78;48.13
19751;BME280;4663;49.120;9.730;2023-07-13T08:17:34;98162.06;;;28.48;49.75
19751;BME280;4663;49.120;9.730;2023-07-13T08:20:00;98136.69;;;28.35;48.14
19751;BME280;4663;49.120;9.730;2023-07-13T08:22:26;98127.84;;;28.59;47.04
19751;BME280;4663;49.120;9.730;2023-07-13T08:24:52;98112.09;;;28.81;44.62
19751;BME280;4663;49.120;9.730;2023-07-13T08:27:24;98118.09;;;29.24;44.64
19751;BME280;4663;49.120;9.730;2023-07-13T08:29:51;98102.22;;;28.38;44.26
19751;BME280;4663;49.120;9.730;2023-07-13T08:32:17;98114.31;;;28.63;44.88
19751;BME280;4663;49.120;9.730;2023-07-13T08:34:43;98116.97;;;27.69;45.84
19751;BME280;4663;49.120;9.730;2023-07-13T08:37:08;98114.81;;;27.92;45.07
19751;BME280;4663;49.120;9.730;2023-07-13T08:39:34;98123.13;;;28.96;44.91
19751;BME280;4663;49.120;9.730;2023-07-13T08:42:12;98152.28;;;29.95;46.35
19751;BME280;4663;49.120;9.730;2023-07-13T08:47:21;98151.44;;;29.38;46.00
19751;BME280;4663;49.120;9.730;2023-07-13T08:49:48;98138.41;;;30.10;44.00
19751;BME280;4663;49.120;9.730;2023-07-13T08:54:54;98153.09;;;29.95;45.43
19751;BME280;4663;49.120;9.730;2023-07-13T08:57:29;98134.56;;;29.45;44.39
19751;BME280;4663;49.120;9.730;2023-07-13T08:59:56;98141.88;;;28.89;45.33
19751;BME280;4663;49.120;9.730;2023-07-13T09:02:31;98171.91;;;29.27;46.53
19751;BME280;4663;49.120;9.730;2023-07-13T09:05:03;98138.72;;;29.37;44.01
19751;BME280;4663;49.120;9.730;2023-07-13T09:10:43;98139.00;;;27.69;46.21
19751;BME280;4663;49.120;9.730;2023-07-13T09:15:50;98162.25;;;28.15;46.79
19751;BME280;4663;49.120;9.730;2023-07-13T09:18:31;98133.06;;;28.76;44.82
19751;BME280;4663;49.120;9.730;2023-07-13T09:21:12;98129.69;;;27.96;45.89
19751;BME280;4663;49.120;9.730;2023-07-13T09:23:39;98124.25;;;28.48;45.36
19751;BME280;4663;49.120;9.730;2023-07-13T09:26:20;98149.81;;;29.27;45.48
19751;BME280;4663;49.120;9.730;2023-07-13T09:28:54;98142.38;;;29.12;44.40
19751;BME280;4663;49.120;9.730;2023-07-13T09:31:32;98141.78;;;29.31;43.83
19751;BME280;4663;49.120;9.730;2023-07-13T09:33:59;98145.75;;;28.72;45.10
19751;BME280;4663;49.120;9.730;2023-07-13T09:36:28;98140.38;;;29.54;44.19
19751;BME280;4663;49.120;9.730;2023-07-13T09:44:14;98134.97;;;29.02;44.48
19751;BME280;4663;49.120;9.730;2023-07-13T09:47:00;98139.13;;;28.32;45.82
19751;BME280;4663;49.120;9.730;2023-07-13T09:49:29;98123.69;;;28.31;43.92
19751;BME280;4663;49.120;9.730;2023-07-13T09:52:03;98129.75;;;28.90;44.22
19751;BME280;4663;49.120;9.730;2023-07-13T09:54:33;98115.41;;;28.93;43.73
19751;BME280;4663;49.120;9.730;2023-07-13T09:57:00;98120.88;;;29.14;43.53
19751;BME280;4663;49.120;9.730;2023-07-13T09:59:35;98128.66;;;28.44;44.45
19751;BME280;4663;49.120;9.730;2023-07-13T10:02:35;98130.06;;;28.36;44.40
19751;BME280;4663;49.120;9.730;2023-07-13T10:05:14;98130.53;;;27.97;44.91
19751;BME280;4663;49.120;9.730;2023-07-13T10:07:44;98147.44;;;28.53;45.44
19751;BME280;4663;49.120;9.730;2023-07-13T10:10:15;98152.94;;;28.42;45.80
19751;BME280;4663;49.120;9.730;2023-07-13T10:12:41;98149.06;;;28.48;44.85
19751;BME280;4663;49.120;9.730;2023-07-13T10:15:14;98136.38;;;28.21;45.15
19751;BME280;4663;49.120;9.730;2023-07-13T10:17:41;98150.16;;;28.68;46.13
19751;BME280;4663;49.120;9.730;2023-07-13T10:20:07;98145.75;;;28.98;45.11
19751;BME280;4663;49.120;9.730;2023-07-13T10:22:59;98121.97;;;27.83;44.91
19751;BME280;4663;49.120;9.730;2023-07-13T10:25:31;98141.28;;;27.93;45.19
19751;BME280;4663;49.120;9.730;2023-07-13T10:28:02;98142.97;;;28.10;44.67
19751;BME280;4663;49.120;9.730;2023-07-13T10:30:33;98144.00;;;27.83;45.29
19751;BME280;4663;49.120;9.730;2023-07-13T10:33:02;98152.31;;;27.98;46.04
19751;BME280;4663;49.120;9.730;2023-07-13T10:35:30;98133.97;;;27.02;46.09
19751;BME280;4663;49.120;9.730;2023-07-13T10:38:07;98127.34;;;27.52;45.57
19751;BME280;4663;49.120;9.730;2023-07-13T10:40:45;98143.88;;;27.46;46.67
19751;BME280;4663;49.120;9.730;2023-07-13T10:43:23;98137.44;;;27.89;46.28
19751;BME280;4663;49.120;9.730;2023-07-13T10:45:50;98146.16;;;27.70;45.81
19751;BME280;4663;49.120;9.730;2023-07-13T10:48:17;98143.19;;;27.18;46.54
19751;BME280;4663;49.120;9.730;2023-07-13T10:50:45;98172.94;;;27.80;47.85
19751;BME280;4663;49.120;9.730;2023-07-13T10:53:28;98123.19;;;26.90;46.02
19751;BME280;4663;49.120;9.730;2023-07-13T10:55:58;98162.19;;;27.73;48.20
19751;BME280;4663;49.120;9.730;2023-07-13T10:58:35;98113.25;;;26.51;45.60
19751;BME280;4663;49.120;9.730;2023-07-13T11:01:15;98160.97;;;27.54;48.18
19751;BME280;4663;49.120;9.730;2023-07-13T11:03:55;98128.66;;;28.13;45.35
19751;BME280;4663;49.120;9.730;2023-07-13T11:08:55;98117.38;;;27.30;45.98
19751;BME280;4663;49.120;9.730;2023-07-13T11:18:50;98116.31;;;27.46;45.80
19751;BME280;4663;49.120;9.730;2023-07-13T11:23:45;98112.81;;;27.03;45.08
19751;BME280;4663;49.120;9.730;2023-07-13T11:29:46;98131.34;;;27.18;46.20
19751;BME280;4663;49.120;9.730;2023-07-13T11:32:25;98108.66;;;27.64;45.35
19751;BME280;4663;49.120;9.730;2023-07-13T11:34:54;98117.00;;;27.74;45.28
19751;BME280;4663;49.120;9.730;2023-07-13T11:37:21;98120.06;;;28.15;45.13
19751;BME280;4663;49.120;9.730;2023-07-13T11:39:48;98121.97;;;27.19;46.68
19751;BME280;4663;49.120;9.730;2023-07-13T11:42:17;98103.63;;;27.40;45.24
19751;BME280;4663;49.120;9.730;2023-07-13T11:44:46;98120.38;;;26.85;46.64
19751;BME280;4663;49.120;9.730;2023-07-13T11:47:18;98116.06;;;26.94;46.61
19751;BME280;4663;49.120;9.730;2023-07-13T11:49:48;98113.97;;;26.69;45.91
19751;BME280;4663;49.120;9.730;2023-07-13T11:52:16;98107.84;;;26.29;46.62
19751;BME280;4663;49.120;9.730;2023-07-13T11:54:51;98099.44;;;26.08;45.92
19751;BME280;4663;49.120;9.730;2023-07-13T11:57:33;98127.31;;;26.93;46.73
19751;BME280;4663;49.120;9.730;2023-07-13T12:00:03;98120.78;;;27.04;46.01
19751;BME280;4663;49.120;9.730;2023-07-13T12:02:38;98111.69;;;26.99;45.92
19751;BME280;4663;49.120;9.730;2023-07-13T12:05:04;98115.22;;;27.42;45.73
19751;BME280;4663;49.120;9.730;2023-07-13T12:07:32;98083.84;;;26.90;44.56
19751;BME280;4663;49.120;9.730;2023-07-13T12:13:08;98123.63;;;27.79;45.63
19751;BME280;4663;49.120;9.730;2023-07-13T12:15:39;98113.16;;;27.86;45.18
19751;BME280;4663;49.120;9.730;2023-07-13T12:18:14;98112.63;;;27.99;44.58
19751;BME280;4663;49.120;9.730;2023-07-13T12:20:40;98102.94;;;27.86;44.08
19751;BME280;4663;49.120;9.730;2023-07-13T12:23:32;98097.91;;;27.63;44.23
19751;BME280;4663;49.120;9.730;2023-07-13T12:26:00;98100.91;;;27.45;44.32
19751;BME280;4663;49.120;9.730;2023-07-13T12:28:33;98115.38;;;26.77;46.43
19751;BME280;4663;49.120;9.730;2023-07-13T12:31:02;98121.16;;;27.18;45.36
19751;BME280;4663;49.120;9.730;2023-07-13T12:33:29;98098.66;;;26.83;44.71
19751;BME280;4663;49.120;9.730;2023-07-13T12:35:56;98106.25;;;27.78;44.42
19751;BME280;4663;49.120;9.730;2023-07-13T12:38:24;98111.22;;;27.81;45.04
19751;BME280;4663;49.120;9.730;2023-07-13T12:40:51;98096.66;;;27.17;44.38
19751;BME280;4663;49.120;9.730;2023-07-13T12:43:20;98103.38;;;27.47;44.21
19751;BME280;4663;49.120;9.730;2023-07-13T12:46:03;98108.53;;;27.28;44.83
19751;BME280;4663;49.120;9.730;2023-07-13T12:48:29;98134.63;;;27.79;47.28
19751;BME280;4663;49.120;9.730;2023-07-13T12:50:55;98109.59;;;28.22;44.15
19751;BME280;4663;49.120;9.730;2023-07-13T12:53:24;98128.69;;;28.65;45.41
19751;BME280;4663;49.120;9.730;2023-07-13T12:55:56;98087.84;;;28.15;43.24
19751;BME280;4663;49.120;9.730;2023-07-13T12:58:32;98083.13;;;27.95;43.06
19751;BME280;4663;49.120;9.730;2023-07-13T13:01:02;98100.81;;;27.19;44.75
19751;BME280;4663;49.120;9.730;2023-07-13T13:03:39;98100.13;;;27.55;45.10
19751;BME280;4663;49.120;9.730;2023-07-13T13:08:40;98072.38;;;27.83;43.44
19751;BME280;4663;49.120;9.730;2023-07-13T13:11:08;98091.72;;;28.30;44.22
19751;BME280;4663;49.120;9.730;2023-07-13T13:13:34;98100.78;;;28.25;44.21
19751;BME280;4663;49.120;9.730;2023-07-13T13:18:35;98080.59;;;27.62;43.32
19751;BME280;4663;49.120;9.730;2023-07-13T13:21:01;98087.81;;;27.84;43.90
19751;BME280;4663;49.120;9.730;2023-07-13T13:23:26;98075.97;;;27.94;43.26
19751;BME280;4663;49.120;9.730;2023-07-13T13:25:52;98088.09;;;27.98;44.72
19751;BME280;4663;49.120;9.730;2023-07-13T13:28:19;98074.06;;;28.25;43.02
19751;BME280;4663;49.120;9.730;2023-07-13T13:30:47;98072.38;;;28.24;42.35
19751;BME280;4663;49.120;9.730;2023-07-13T13:33:15;98076.53;;;27.96;43.67
19751;BME280;4663;49.120;9.730;2023-07-13T13:35:41;98065.53;;;28.43;42.37
19751;BME280;4663;49.120;9.730;2023-07-13T13:38:14;98079.03;;;28.49;42.98
19751;BME280;4663;49.120;9.730;2023-07-13T13:40:41;98089.28;;;29.36;42.54
19751;BME280;4663;49.120;9.730;2023-07-13T13:45:41;98078.47;;;28.63;42.76
19751;BME280;4663;49.120;9.730;2023-07-13T13:48:14;98086.19;;;28.50;43.54
19751;BME280;4663;49.120;9.730;2023-07-13T13:50:40;98098.06;;;28.56;44.10
19751;BME280;4663;49.120;9.730;2023-07-13T13:53:09;98080.13;;;28.59;42.54
19751;BME280;4663;49.120;9.730;2023-07-13T13:55:35;98094.97;;;27.85;44.36
19751;BME280;4663;49.120;9.730;2023-07-13T13:58:00;98087.84;;;28.20;43.34